Time;durP1;ratioP1;P1;durP2;ratioP2;P2;SDS_P1;SDS_P2;PMS_P1;PMS_P2;Temp;Humidity;BMP_temperature;BMP_pressure;BME280_temperature;BME280_humidity;BME280_pressure;Samples;Min_cycle;Max_cycle;Signal;HPM_P1;HPM_P2
2021/01/29 00:00:36;;;;;;;1.95;1.40;;;1.50;99.90;;;;;;5027648;28;20731;-77
2021/01/29 00:03:04;;;;;;;1.65;1.40;;;1.50;99.90;;;;;;5028279;28;20176;-77
2021/01/29 00:05:38;;;;;;;2.10;1.48;;;1.60;99.90;;;;;;4993836;28;20056;-77
2021/01/29 00:08:04;;;;;;;2.13;1.70;;;1.60;99.90;;;;;;5009135;28;20098;-77
2021/01/29 00:10:30;;;;;;;2.65;1.63;;;1.60;99.90;;;;;;5009483;28;20045;-77
2021/01/29 00:12:56;;;;;;;1.58;1.40;;;1.60;99.90;;;;;;5011896;28;20037;-76
2021/01/29 00:15:22;;;;;;;2.92;2.17;;;1.60;99.90;;;;;;5048516;28;20040;-76
2021/01/29 00:17:49;;;;;;;7.40;1.75;;;1.60;99.90;;;;;;5049142;28;20090;-75
2021/01/29 00:20:19;;;;;;;4.07;1.50;;;1.60;99.90;;;;;;5050233;28;20032;-75
2021/01/29 00:22:45;;;;;;;2.58;1.65;;;1.60;99.90;;;;;;5033126;28;20521;-77
2021/01/29 00:25:15;;;;;;;2.63;1.80;;;1.60;99.90;;;;;;5032541;28;20021;-75
2021/01/29 00:27:42;;;;;;;2.75;2.05;;;1.60;99.90;;;;;;5031303;28;20036;-75
2021/01/29 00:30:08;;;;;;;3.25;2.03;;;1.50;99.90;;;;;;5035292;28;20040;-75
2021/01/29 00:32:34;;;;;;;3.10;2.10;;;1.60;99.90;;;;;;5040569;28;20033;-74
2021/01/29 00:35:00;;;;;;;2.60;1.88;;;1.50;99.90;;;;;;5045691;28;20038;-74
2021/01/29 00:37:25;;;;;;;4.32;2.08;;;1.60;99.90;;;;;;5004475;28;20032;-75
2021/01/29 00:39:51;;;;;;;3.90;2.33;;;1.60;99.90;;;;;;5035708;28;20030;-76
2021/01/29 00:42:17;;;;;;;5.30;2.88;;;1.60;99.90;;;;;;5029654;28;20052;-75
2021/01/29 00:44:43;;;;;;;4.90;2.63;;;1.50;99.90;;;;;;5018733;28;20061;-76
2021/01/29 00:47:08;;;;;;;3.58;2.10;;;1.50;99.90;;;;;;5018082;28;20037;-75
2021/01/29 00:49:34;;;;;;;3.58;2.08;;;1.50;99.90;;;;;;5019076;28;20399;-75
2021/01/29 00:52:00;;;;;;;2.95;1.95;;;1.50;99.90;;;;;;5019027;28;20065;-75
2021/01/29 00:54:26;;;;;;;3.90;2.30;;;1.40;99.90;;;;;;5036964;28;20078;-75
2021/01/29 00:56:52;;;;;;;2.92;2.00;;;1.40;99.90;;;;;;5017517;28;20040;-76
2021/01/29 00:59:17;;;;;;;2.60;2.08;;;1.40;99.90;;;;;;5018951;28;20029;-74
2021/01/29 01:01:45;;;;;;;4.10;2.72;;;1.40;99.90;;;;;;5036716;28;20049;-75
2021/01/29 01:04:13;;;;;;;3.40;2.17;;;1.40;99.90;;;;;;5019150;28;20052;-75
2021/01/29 01:06:39;;;;;;;5.03;3.00;;;1.50;99.90;;;;;;5017806;28;20040;-76
2021/01/29 01:09:23;;;;;;;6.25;2.72;;;1.50;99.90;;;;;;5036632;28;20558;-75
2021/01/29 01:11:49;;;;;;;6.47;3.35;;;1.50;99.90;;;;;;5008352;28;20120;-75
2021/01/29 01:14:34;;;;;;;4.20;2.80;;;1.50;99.90;;;;;;5031409;28;20049;-75
2021/01/29 01:17:20;;;;;;;7.82;3.65;;;1.50;99.90;;;;;;5035331;28;20508;-76
2021/01/29 01:20:14;;;;;;;8.57;3.83;;;1.50;99.90;;;;;;5021669;28;20029;-75
2021/01/29 01:22:40;;;;;;;5.65;3.25;;;1.60;99.90;;;;;;5035078;28;20505;-77
2021/01/29 01:25:32;;;;;;;7.07;3.72;;;1.60;99.90;;;;;;5033295;28;20494;-76
2021/01/29 01:28:00;;;;;;;6.22;3.78;;;1.70;99.90;;;;;;5001474;28;20517;-75
2021/01/29 01:30:51;;;;;;;6.03;3.60;;;1.70;99.90;;;;;;5019289;28;20045;-76
2021/01/29 01:33:20;;;;;;;7.00;3.50;;;1.80;99.90;;;;;;5002895;28;20038;-76
2021/01/29 01:36:06;;;;;;;;;;;1.70;99.90;;;;;;5036263;28;20045;-76
2021/01/29 01:38:41;;;;;;;5.75;3.88;;;1.70;99.90;;;;;;5033936;28;19912;-77
2021/01/29 01:41:07;;;;;;;4.32;3.05;;;1.70;99.90;;;;;;5018607;28;20405;-76
2021/01/29 01:43:43;;;;;;;6.95;4.00;;;1.70;99.90;;;;;;5014664;28;20116;-76
2021/01/29 01:46:28;;;;;;;4.82;3.38;;;1.80;99.90;;;;;;5014134;28;20036;-76
2021/01/29 01:49:33;;;;;;;6.40;4.00;;;1.80;99.90;;;;;;5020237;28;20026;-76
2021/01/29 01:52:20;;;;;;;7.97;4.47;;;1.70;99.90;;;;;;5000707;28;20029;-76
2021/01/29 01:55:12;;;;;;;6.07;3.50;;;1.70;99.90;;;;;;5001549;28;20041;-75
2021/01/29 01:57:47;;;;;;;6.15;3.65;;;1.70;99.90;;;;;;5016405;28;20116;-76
2021/01/29 02:00:25;;;;;;;6.40;3.50;;;1.70;99.90;;;;;;5015214;28;20076;-75
2021/01/29 02:03:17;;;;;;;7.18;3.95;;;1.70;99.90;;;;;;5025913;28;20455;-76
2021/01/29 02:06:01;;;;;;;7.88;3.65;;;1.60;99.90;;;;;;4994165;28;20038;-74
2021/01/29 02:08:46;;;;;;;8.23;4.23;;;1.60;99.90;;;;;;4994581;28;20108;-75
2021/01/29 02:11:30;;;;;;;7.95;4.15;;;1.60;99.90;;;;;;4998395;28;20475;-74
2021/01/29 02:14:07;;;;;;;8.43;4.03;;;1.60;99.90;;;;;;4980663;28;20150;-76
2021/01/29 02:17:08;;;;;;;6.30;3.45;;;1.60;99.90;;;;;;4993998;28;20041;-76
2021/01/29 02:20:14;;;;;;;6.03;3.45;;;1.50;99.90;;;;;;5012393;28;20037;-76
2021/01/29 02:22:43;;;;;;;6.35;3.38;;;1.50;99.90;;;;;;4995323;28;20030;-74
2021/01/29 02:25:37;;;;;;;7.32;3.88;;;1.50;99.90;;;;;;5012680;28;20034;-74
2021/01/29 02:28:43;;;;;;;6.00;3.38;;;1.60;99.90;;;;;;4993883;28;20137;-75
2021/01/29 02:31:46;;;;;;;5.82;3.20;;;1.60;99.90;;;;;;5006770;28;20490;-75
2021/01/29 02:34:36;;;;;;;5.68;3.17;;;1.60;99.90;;;;;;4995124;28;20407;-75
2021/01/29 02:38:04;;;;;;;5.53;2.65;;;1.60;99.90;;;;;;4993813;28;20037;-75
2021/01/29 02:41:04;;;;;;;2.92;2.10;;;1.60;99.90;;;;;;4967965;28;20034;-75
2021/01/29 02:43:48;;;;;;;9.63;3.60;;;1.60;99.90;;;;;;4954336;28;20042;-77
2021/01/29 02:47:02;;;;;;;5.78;2.65;;;1.60;99.90;;;;;;5011680;28;20049;-74
2021/01/29 02:50:13;;;;;;;3.83;2.70;;;1.60;99.90;;;;;;5012507;28;20048;-74
2021/01/29 02:53:24;;;;;;;4.32;2.85;;;1.70;99.90;;;;;;5011079;28;20042;-75
2021/01/29 02:56:31;;;;;;;6.55;3.20;;;1.80;99.90;;;;;;5010917;28;20406;-74
2021/01/29 02:59:54;;;;;;;6.05;3.10;;;1.80;99.90;;;;;;4997907;28;20042;-76
2021/01/29 03:02:44;;;;;;;7.75;3.60;;;1.70;99.90;;;;;;4994557;28;20026;-74
2021/01/29 03:05:29;;;;;;;8.35;3.50;;;1.60;99.90;;;;;;4994557;28;20037;-74
2021/01/29 03:08:22;;;;;;;4.90;2.78;;;1.50;99.90;;;;;;4993370;28;20498;-75
2021/01/29 03:11:12;;;;;;;3.78;2.50;;;1.50;99.90;;;;;;5012043;28;20045;-75
2021/01/29 03:14:17;;;;;;;4.18;2.70;;;1.60;99.90;;;;;;5011768;28;20059;-74
2021/01/29 03:17:13;;;;;;;5.68;2.92;;;1.60;99.90;;;;;;5010775;28;20103;-74
2021/01/29 03:20:11;;;;;;;2.92;2.22;;;1.60;99.90;;;;;;5011850;28;20045;-74
2021/01/29 03:23:18;;;;;;;4.55;2.22;;;1.70;99.90;;;;;;5011890;28;20143;-74
2021/01/29 03:26:08;;;;;;;4.65;2.40;;;1.60;99.90;;;;;;4996717;28;20045;-75
2021/01/29 03:28:58;;;;;;;3.75;2.90;;;1.60;99.90;;;;;;5011934;28;20554;-74
2021/01/29 03:31:46;;;;;;;4.18;2.20;;;1.60;99.90;;;;;;4996825;28;20049;-75
2021/01/29 03:34:44;;;;;;;2.67;1.70;;;1.70;99.90;;;;;;5011704;28;20080;-76
2021/01/29 03:37:51;;;;;;;2.92;1.92;;;1.70;99.90;;;;;;5010726;28;20045;-74
2021/01/29 03:40:44;;;;;;;4.80;2.58;;;1.70;99.90;;;;;;5031215;28;20501;-74
2021/01/29 03:43:48;;;;;;;3.60;2.45;;;1.70;99.90;;;;;;5002326;28;20048;-74
2021/01/29 03:46:50;;;;;;;4.65;2.35;;;1.70;99.90;;;;;;5014668;28;20136;-75
2021/01/29 03:50:02;;;;;;;3.90;2.63;;;1.60;99.90;;;;;;5027850;28;20610;-76
2021/01/29 03:53:26;;;;;;;3.25;1.98;;;1.60;99.90;;;;;;5030166;28;20040;-75
2021/01/29 03:56:26;;;;;;;4.72;2.38;;;1.60;99.90;;;;;;5004248;28;20087;-75
2021/01/29 03:59:45;;;;;;;3.30;1.88;;;1.60;99.90;;;;;;5025730;28;20127;-75
2021/01/29 04:02:57;;;;;;;3.63;1.67;;;1.60;99.90;;;;;;5030398;28;20493;-75
2021/01/29 04:06:13;;;;;;;3.83;2.00;;;1.70;99.90;;;;;;5029924;28;20044;-75
2021/01/29 04:09:09;;;;;;;4.55;2.10;;;1.70;99.90;;;;;;5030563;28;20098;-73
2021/01/29 04:12:00;;;;;;;3.25;1.92;;;1.80;99.90;;;;;;5029828;28;20044;-75
2021/01/29 04:14:49;;;;;;;2.88;2.10;;;1.80;99.90;;;;;;4998361;28;20443;-75
2021/01/29 04:17:31;;;;;;;4.47;2.13;;;1.80;99.90;;;;;;5011233;28;20049;-75
2021/01/29 04:20:02;;;;;;;2.83;1.85;;;1.80;99.90;;;;;;5030247;28;20029;-75
2021/01/29 04:22:36;;;;;;;3.35;1.90;;;1.80;99.90;;;;;;5012662;28;20029;-75
2021/01/29 04:25:11;;;;;;;3.30;1.90;;;1.90;99.90;;;;;;5012635;28;20105;-75
2021/01/29 04:27:39;;;;;;;3.75;2.03;;;1.90;99.90;;;;;;5028751;28;20389;-75
2021/01/29 04:30:14;;;;;;;3.33;2.15;;;1.80;99.90;;;;;;5010944;28;20037;-75
2021/01/29 04:32:44;;;;;;;5.50;2.47;;;1.80;99.90;;;;;;5029906;28;20720;-74
2021/01/29 04:35:13;;;;;;;5.90;2.40;;;1.80;99.90;;;;;;5019622;28;20094;-74
2021/01/29 04:37:49;;;;;;;5.07;2.33;;;1.90;99.90;;;;;;5011682;28;20397;-75
2021/01/29 04:40:37;;;;;;;5.30;2.90;;;1.90;99.90;;;;;;5029783;28;20099;-75
2021/01/29 04:43:13;;;;;;;4.97;2.33;;;2.00;99.90;;;;;;5012339;28;20710;-75
2021/01/29 04:45:42;;;;;;;;;;;2.10;99.90;;;;;;5012750;28;20409;-74
2021/01/29 04:48:18;;;;;;;6.47;2.92;;;2.10;99.90;;;;;;5028505;28;19909;-74
2021/01/29 04:51:39;;;;;;;4.47;2.55;;;2.00;99.90;;;;;;5012307;28;20044;-75
2021/01/29 04:54:34;;;;;;;5.57;3.10;;;2.00;99.90;;;;;;5029883;28;20030;-75
2021/01/29 04:57:23;;;;;;;5.07;2.92;;;2.00;99.90;;;;;;5019973;28;20084;-74
2021/01/29 05:00:11;;;;;;;8.43;3.53;;;2.10;99.90;;;;;;5029638;28;20032;-75
2021/01/29 05:02:55;;;;;;;6.75;2.80;;;2.10;99.90;;;;;;5030022;28;20514;-74
2021/01/29 05:06:04;;;;;;;7.65;3.45;;;2.00;99.90;;;;;;5013386;28;20160;-75
2021/01/29 05:09:15;;;;;;;10.07;3.03;;;2.10;99.90;;;;;;5005270;28;20029;-75
2021/01/29 05:12:34;;;;;;;8.82;3.20;;;2.00;99.90;;;;;;5016541;28;20373;-75
2021/01/29 05:15:23;;;;;;;5.68;2.75;;;1.90;99.90;;;;;;5016843;28;20160;-75
2021/01/29 05:18:04;;;;;;;5.68;2.70;;;1.90;99.90;;;;;;5008521;28;20064;-75
2021/01/29 05:21:08;;;;;;;8.07;2.85;;;1.90;99.90;;;;;;5033621;28;20650;-75
2021/01/29 05:24:07;;;;;;;5.15;2.13;;;2.00;99.90;;;;;;5006738;28;20048;-75
2021/01/29 05:26:57;;;;;;;5.45;2.40;;;2.00;99.90;;;;;;5032268;28;20028;-75
2021/01/29 05:30:11;;;;;;;6.20;2.72;;;2.00;99.90;;;;;;5033270;28;20027;-75
2021/01/29 05:33:00;;;;;;;28.75;12.77;;;2.00;99.90;;;;;;4979860;28;20133;-75
2021/01/29 05:35:46;;;;;;;22.85;8.65;;;2.00;99.90;;;;;;5033373;28;20099;-75
2021/01/29 05:38:12;;;;;;;;;;;2.10;99.90;;;;;;5019995;28;20037;-75
2021/01/29 05:40:50;;;;;;;;;;;2.10;99.90;;;;;;5015089;28;19909;-76
2021/01/29 05:43:29;;;;;;;97.18;34.58;;;2.20;99.90;;;;;;5027893;28;19913;-76
2021/01/29 05:46:14;;;;;;;23.00;9.57;;;2.20;99.90;;;;;;5031949;28;20018;-74
2021/01/29 05:48:48;;;;;;;27.40;12.20;;;2.20;99.90;;;;;;5032824;28;20482;-75
2021/01/29 05:51:51;;;;;;;37.65;15.98;;;2.10;99.90;;;;;;5014951;28;20493;-76
2021/01/29 05:54:26;;;;;;;10.05;5.15;;;2.10;99.90;;;;;;5012968;28;20502;-75
2021/01/29 05:57:13;;;;;;;8.77;4.65;;;2.00;99.90;;;;;;5010447;28;20037;-75
2021/01/29 05:59:56;;;;;;;8.07;2.65;;;2.00;99.90;;;;;;5015105;28;20048;-75
2021/01/29 06:02:55;;;;;;;3.63;1.83;;;2.00;99.90;;;;;;5032697;28;20022;-76
2021/01/29 06:05:48;;;;;;;3.08;1.80;;;2.10;99.90;;;;;;5014009;28;20438;-75
2021/01/29 06:08:20;;;;;;;3.10;2.08;;;2.10;99.90;;;;;;5011008;28;20124;-75
2021/01/29 06:11:17;;;;;;;3.72;2.10;;;2.00;99.90;;;;;;4995273;28;20041;-75
2021/01/29 06:14:25;;;;;;;3.22;1.95;;;2.00;99.90;;;;;;5020553;28;20045;-76
2021/01/29 06:17:03;;;;;;;3.15;2.10;;;2.10;99.90;;;;;;5021556;28;20493;-76
2021/01/29 06:19:48;;;;;;;3.88;2.08;;;2.00;99.90;;;;;;5010505;28;20030;-76
2021/01/29 06:22:29;;;;;;;3.05;2.40;;;2.00;99.90;;;;;;5028816;28;20029;-75
2021/01/29 06:25:06;;;;;;;4.75;2.80;;;2.00;99.90;;;;;;5031031;28;20017;-75
2021/01/29 06:27:53;;;;;;;4.93;2.42;;;2.00;99.90;;;;;;5025413;28;20613;-75
2021/01/29 06:30:43;;;;;;;3.33;2.13;;;2.00;99.90;;;;;;5043074;28;20040;-75
2021/01/29 06:33:24;;;;;;;2.78;1.80;;;2.00;99.90;;;;;;5039575;28;20061;-75
2021/01/29 06:36:01;;;;;;;4.10;2.03;;;2.00;99.90;;;;;;5032285;28;20040;-77
2021/01/29 06:38:54;;;;;;;4.25;1.98;;;2.00;99.90;;;;;;4992146;28;20026;-75
2021/01/29 06:41:29;;;;;;;2.78;1.33;;;2.10;99.90;;;;;;5012291;28;20028;-76
2021/01/29 06:44:32;;;;;;;3.07;1.70;;;2.10;99.90;;;;;;5012220;28;20483;-76
2021/01/29 06:47:19;;;;;;;3.15;2.00;;;2.20;99.90;;;;;;5001022;28;20057;-76
2021/01/29 06:50:03;;;;;;;8.30;5.50;;;2.10;99.90;;;;;;4997770;28;20129;-76
2021/01/29 06:52:46;;;;;;;4.72;3.30;;;2.10;99.90;;;;;;5031959;28;20052;-76
2021/01/29 06:55:46;;;;;;;6.25;3.60;;;2.00;99.90;;;;;;5001849;28;20032;-76
2021/01/29 06:58:34;;;;;;;8.23;4.43;;;2.10;99.90;;;;;;5034935;28;20107;-77
2021/01/29 07:01:31;;;;;;;16.83;9.38;;;2.10;99.90;;;;;;5034224;28;20645;-76
2021/01/29 07:04:16;;;;;;;4.35;3.00;;;2.10;99.90;;;;;;5023297;28;20041;-76
2021/01/29 07:07:08;;;;;;;4.43;2.50;;;2.00;99.90;;;;;;5034075;28;20025;-76
2021/01/29 07:10:04;;;;;;;2.80;1.92;;;2.10;99.90;;;;;;5016904;28;20442;-76
2021/01/29 07:13:04;;;;;;;5.97;3.80;;;2.10;99.90;;;;;;5026515;28;20495;-76
2021/01/29 07:16:04;;;;;;;7.22;4.70;;;2.10;99.90;;;;;;5049723;28;20037;-76
2021/01/29 07:19:07;;;;;;;6.05;4.05;;;2.10;99.90;;;;;;5049543;28;20028;-75
2021/01/29 07:21:39;;;;;;;4.57;3.60;;;2.10;99.90;;;;;;5034141;28;20029;-75
2021/01/29 07:24:23;;;;;;;6.07;4.05;;;2.00;99.90;;;;;;5050701;28;20028;-76
2021/01/29 07:27:02;;;;;;;2.50;2.00;;;2.00;99.90;;;;;;5025452;28;20025;-75
2021/01/29 07:29:40;;;;;;;2.83;2.20;;;2.00;99.90;;;;;;5049858;28;20025;-76
2021/01/29 07:32:05;;;;;;;2.38;1.33;;;2.00;99.90;;;;;;5029254;28;20032;-76
2021/01/29 07:35:02;;;;;;;2.63;1.48;;;2.10;99.90;;;;;;5048474;28;20025;-76
2021/01/29 07:38:05;;;;;;;2.58;1.67;;;2.10;99.90;;;;;;5026750;28;20033;-76
2021/01/29 07:40:53;;;;;;;1.75;1.58;;;2.10;99.90;;;;;;5049970;28;20025;-75
2021/01/29 07:43:48;;;;;;;2.30;1.70;;;2.10;99.90;;;;;;5033991;28;20025;-75
2021/01/29 07:46:28;;;;;;;3.75;1.80;;;2.20;99.90;;;;;;5047990;28;20549;-75
2021/01/29 07:49:21;;;;;;;5.07;3.58;;;2.30;99.90;;;;;;5039455;28;20029;-76
2021/01/29 07:51:59;;;;;;;3.85;2.28;;;2.30;99.90;;;;;;5033789;28;20025;-76
2021/01/29 07:54:36;;;;;;;2.03;1.70;;;2.30;99.90;;;;;;5031769;28;20029;-75
2021/01/29 07:57:36;;;;;;;0.98;0.88;;;2.30;99.90;;;;;;5028076;28;20033;-75
2021/01/29 08:00:33;;;;;;;1.63;1.27;;;2.30;99.90;;;;;;5034931;28;20496;-75
2021/01/29 08:03:11;;;;;;;;;;;2.30;99.90;;;;;;5020935;28;20036;-76
2021/01/29 08:06:03;;;;;;;3.17;0.80;;;2.30;99.90;;;;;;5021563;28;19908;-76
2021/01/29 08:08:36;;;;;;;2.25;1.60;;;2.40;99.90;;;;;;5039598;28;20393;-76
2021/01/29 08:11:06;;;;;;;4.15;1.50;;;2.40;99.90;;;;;;5008393;28;20106;-75
2021/01/29 08:13:32;;;;;;;23.23;1.92;;;2.30;99.90;;;;;;5031179;28;20061;-75
2021/01/29 08:16:38;;;;;;;2.13;0.98;;;2.30;99.90;;;;;;5013344;28;20569;-76
2021/01/29 08:19:28;;;;;;;3.15;1.30;;;2.40;99.90;;;;;;5032508;28;20021;-75
2021/01/29 08:22:03;;;;;;;8.55;1.02;;;2.40;99.90;;;;;;5031886;28;20140;-75
2021/01/29 08:24:53;;;;;;;1.25;0.95;;;2.40;99.90;;;;;;5029995;28;20025;-75
2021/01/29 08:28:03;;;;;;;2.03;1.05;;;2.40;99.90;;;;;;5032216;28;20036;-76
2021/01/29 08:31:16;;;;;;;2.00;0.90;;;2.40;99.90;;;;;;5021732;28;20581;-76
2021/01/29 08:34:39;;;;;;;1.85;1.00;;;2.30;99.90;;;;;;4984371;28;20037;-76
2021/01/29 08:37:20;;;;;;;4.85;2.53;;;2.30;99.90;;;;;;5011066;28;20497;-76
2021/01/29 08:40:26;;;;;;;5.20;3.13;;;2.40;99.90;;;;;;5032585;28;20021;-75
2021/01/29 08:43:13;;;;;;;3.10;2.37;;;2.40;99.90;;;;;;5023455;28;20025;-75
2021/01/29 08:46:07;;;;;;;3.53;2.33;;;2.50;99.90;;;;;;5039129;28;20025;-74
2021/01/29 08:48:56;;;;;;;5.43;2.38;;;2.50;99.90;;;;;;5038464;28;20025;-75
2021/01/29 08:51:40;;;;;;;3.72;2.42;;;2.50;99.90;;;;;;5041820;28;20040;-75
2021/01/29 08:54:18;;;;;;;4.15;2.60;;;2.60;99.90;;;;;;5048395;28;20365;-75
2021/01/29 08:56:53;;;;;;;2.85;2.00;;;2.60;99.90;;;;;;5044763;28;20041;-74
2021/01/29 08:59:23;;;;;;;2.40;1.40;;;2.70;99.90;;;;;;5049423;28;20036;-75
2021/01/29 09:02:08;;;;;;;1.85;1.23;;;2.80;99.90;;;;;;5035737;28;20060;-75
2021/01/29 09:04:49;;;;;;;1.48;0.90;;;3.00;99.90;;;;;;5032948;28;20099;-76
2021/01/29 09:07:28;;;;;;;12.73;1.17;;;3.30;99.90;;;;;;5006635;28;20083;-75
2021/01/29 09:10:25;;;;;;;12.23;1.15;;;3.60;99.90;;;;;;5014491;28;20036;-75
2021/01/29 09:13:03;;;;;;;1.45;0.85;;;3.90;99.90;;;;;;5020219;28;20034;-75
2021/01/29 09:15:51;;;;;;;1.38;0.70;;;4.10;99.90;;;;;;5009413;28;20479;-74
2021/01/29 09:18:40;;;;;;;18.48;1.20;;;4.30;99.90;;;;;;5019485;28;20037;-76
2021/01/29 09:21:17;;;;;;;7.35;0.60;;;4.30;99.90;;;;;;5018197;28;20028;-75
2021/01/29 09:24:07;;;;;;;0.40;0.30;;;4.40;99.90;;;;;;5020506;28;20128;-76
2021/01/29 09:26:45;;;;;;;47.00;1.60;;;4.50;99.90;;;;;;5012370;28;20041;-76
2021/01/29 09:29:41;;;;;;;10.75;0.52;;;4.70;99.90;;;;;;5031452;28;20171;-77
2021/01/29 09:32:11;;;;;;;6.10;0.70;;;4.80;99.90;;;;;;5029552;28;20040;-77
2021/01/29 09:34:38;;;;;;;3.50;0.43;;;4.80;99.90;;;;;;5027998;28;20040;-76
2021/01/29 09:37:22;;;;;;;32.50;1.65;;;4.80;99.90;;;;;;5012210;28;20069;-76
2021/01/29 09:39:59;;;;;;;4.68;0.20;;;4.80;99.90;;;;;;5024158;28;20025;-75
2021/01/29 09:42:43;;;;;;;0.25;0.20;;;4.70;99.90;;;;;;5035038;28;20020;-73
2021/01/29 09:45:17;;;;;;;19.27;0.77;;;4.80;99.90;;;;;;5023895;28;20028;-74
2021/01/29 09:47:45;;;;;;;0.57;0.10;;;4.80;99.90;;;;;;5011747;28;20037;-74
2021/01/29 09:50:20;;;;;;;0.30;0.20;;;4.80;99.90;;;;;;5010511;28;20053;-76
2021/01/29 09:52:54;;;;;;;0.00;0.00;;;5.00;99.90;;;;;;5023031;28;20029;-76
2021/01/29 09:55:27;;;;;;;0.20;0.10;;;5.00;99.90;;;;;;5011445;28;20171;-76
2021/01/29 09:58:10;;;;;;;0.00;0.00;;;5.00;99.90;;;;;;5021143;28;20036;-76
2021/01/29 10:00:39;;;;;;;0.28;0.15;;;5.00;99.90;;;;;;5025318;28;20076;-76
2021/01/29 10:03:22;;;;;;;1.52;0.20;;;4.90;99.90;;;;;;5020202;28;20664;-77
2021/01/29 10:06:07;;;;;;;4.22;0.15;;;4.90;99.90;;;;;;5035271;28;20638;-76
2021/01/29 10:08:41;;;;;;;0.45;0.10;;;4.80;99.90;;;;;;5032731;28;20076;-76
2021/01/29 10:11:10;;;;;;;0.00;0.00;;;4.80;99.90;;;;;;5012129;28;20049;-75
2021/01/29 10:13:48;;;;;;;0.00;0.00;;;4.70;99.90;;;;;;5016759;28;20048;-76
2021/01/29 10:16:27;;;;;;;0.00;0.00;;;4.60;99.90;;;;;;5021513;28;20037;-74
2021/01/29 10:19:20;;;;;;;3.03;0.10;;;4.60;99.90;;;;;;5002541;28;20025;-77
2021/01/29 10:21:58;;;;;;;0.00;0.00;;;4.50;99.90;;;;;;5001351;28;20022;-76
2021/01/29 10:24:39;;;;;;;12.10;0.20;;;4.50;99.90;;;;;;5021893;28;20022;-76
2021/01/29 10:27:14;;;;;;;3.60;0.10;;;4.40;99.90;;;;;;5025120;28;20056;-76
2021/01/29 10:29:47;;;;;;;0.10;0.10;;;4.40;99.90;;;;;;5022825;28;20025;-77
2021/01/29 10:32:19;;;;;;;0.10;0.10;;;4.30;99.90;;;;;;5020193;28;20030;-77
2021/01/29 10:34:54;;;;;;;0.00;0.00;;;4.40;99.90;;;;;;5028974;28;20033;-78
2021/01/29 10:37:32;;;;;;;0.00;0.00;;;4.40;99.90;;;;;;5010937;28;20044;-77
2021/01/29 10:40:10;;;;;;;0.00;0.00;;;4.60;99.90;;;;;;5032162;28;20033;-77
2021/01/29 10:42:49;;;;;;;0.28;0.28;;;4.50;99.90;;;;;;5029368;28;20033;-77
2021/01/29 10:45:30;;;;;;;0.00;0.00;;;4.50;99.90;;;;;;5013309;28;20490;-79
2021/01/29 10:48:09;;;;;;;1.65;0.10;;;4.60;99.90;;;;;;5012030;28;20041;-78
2021/01/29 10:50:50;;;;;;;0.00;0.00;;;4.60;99.90;;;;;;5027688;28;20029;-74
2021/01/29 10:53:21;;;;;;;0.20;0.00;;;4.60;99.90;;;;;;5004190;28;20163;-74
2021/01/29 10:55:58;;;;;;;0.10;0.10;;;4.60;99.90;;;;;;5011812;28;20026;-76
2021/01/29 10:58:30;;;;;;;3.00;0.00;;;4.60;99.90;;;;;;5025726;28;20524;-77
2021/01/29 11:00:59;;;;;;;4.43;0.13;;;4.70;99.90;;;;;;5024568;28;20537;-75
2021/01/29 11:03:40;;;;;;;6.38;0.25;;;4.70;99.90;;;;;;5037560;28;20020;-74
2021/01/29 11:06:10;;;;;;;0.15;0.00;;;4.70;99.90;;;;;;5007063;28;20091;-76
2021/01/29 11:08:45;;;;;;;0.75;0.10;;;4.70;99.90;;;;;;5025370;28;20416;-75
2021/01/29 11:11:25;;;;;;;0.00;0.00;;;4.70;99.90;;;;;;5020053;28;20033;-74
2021/01/29 11:14:05;;;;;;;9.95;0.50;;;4.70;99.90;;;;;;5025912;28;20061;-75
2021/01/29 11:16:44;;;;;;;27.20;0.90;;;4.70;99.90;;;;;;5027738;28;20104;-76
2021/01/29 11:19:23;;;;;;;0.20;0.10;;;4.70;99.90;;;;;;5023724;28;20746;-75
2021/01/29 11:22:16;;;;;;;1.65;0.10;;;4.80;99.90;;;;;;5017022;28;20159;-75
2021/01/29 11:25:04;;;;;;;0.30;0.00;;;4.80;99.90;;;;;;5024670;28;20104;-74
2021/01/29 11:27:39;;;;;;;0.65;0.10;;;4.80;99.90;;;;;;5013475;28;20030;-75
2021/01/29 11:30:21;;;;;;;6.13;0.20;;;4.80;99.90;;;;;;5043469;28;20025;-75
2021/01/29 11:32:57;;;;;;;3.40;0.25;;;4.90;99.90;;;;;;5036033;28;20045;-75
2021/01/29 11:35:25;;;;;;;13.23;0.52;;;4.90;99.90;;;;;;5027451;28;20575;-76
2021/01/29 11:37:58;;;;;;;22.60;1.10;;;4.90;99.90;;;;;;5018631;28;20040;-77
2021/01/29 11:40:29;;;;;;;3.53;0.40;;;4.80;99.90;;;;;;5029754;28;20035;-75
2021/01/29 11:43:12;;;;;;;3.35;0.40;;;4.90;99.90;;;;;;5027525;28;20508;-76
2021/01/29 11:45:45;;;;;;;2.28;0.25;;;4.80;99.90;;;;;;5034708;28;20086;-74
2021/01/29 11:48:21;;;;;;;0.90;0.40;;;4.80;99.90;;;;;;5033126;28;20036;-74
2021/01/29 11:51:25;;;;;;;9.70;0.40;;;4.80;99.90;;;;;;5037163;28;20025;-75
2021/01/29 11:54:14;;;;;;;4.70;0.50;;;4.90;99.90;;;;;;5018414;28;20043;-77
2021/01/29 11:56:44;;;;;;;5.95;0.30;;;4.90;99.90;;;;;;5035443;28;20075;-75
2021/01/29 11:59:27;;;;;;;1.85;0.28;;;5.00;99.90;;;;;;5038360;28;20029;-75
2021/01/29 12:02:05;;;;;;;4.80;0.93;;;5.00;99.90;;;;;;5033648;28;20016;-75
2021/01/29 12:04:44;;;;;;;3.80;0.40;;;5.10;99.90;;;;;;5030079;28;20036;-76
2021/01/29 12:07:21;;;;;;;2.03;0.47;;;5.10;99.90;;;;;;5029229;28;20025;-76
2021/01/29 12:09:57;;;;;;;0.73;0.30;;;5.20;99.90;;;;;;5004120;28;20029;-76
2021/01/29 12:12:39;;;;;;;1.60;0.50;;;5.20;99.90;;;;;;5022145;28;20026;-75
2021/01/29 12:15:17;;;;;;;1.17;0.60;;;5.30;99.90;;;;;;5025692;28;20017;-75
2021/01/29 12:17:56;;;;;;;2.17;0.52;;;5.20;99.90;;;;;;5011360;28;20037;-75
2021/01/29 12:20:28;;;;;;;1.20;0.40;;;5.30;99.90;;;;;;5005431;28;20025;-75
2021/01/29 12:23:09;;;;;;;4.47;0.60;;;5.30;99.90;;;;;;5025121;28;20037;-75
2021/01/29 12:25:56;;;;;;;3.65;0.68;;;5.30;99.90;;;;;;5028632;28;20626;-76
2021/01/29 12:28:50;;;;;;;0.88;0.38;;;5.30;99.90;;;;;;5021941;28;20066;-79
2021/01/29 12:31:33;;;;;;;9.13;0.50;;;5.40;99.90;;;;;;5024658;28;20033;-77
2021/01/29 12:34:23;;;;;;;12.43;0.75;;;5.40;99.90;;;;;;5012477;28;20034;-76
2021/01/29 12:37:06;;;;;;;4.05;0.47;;;5.40;99.90;;;;;;5023853;28;20037;-77
2021/01/29 12:39:50;;;;;;;4.57;0.43;;;5.50;99.90;;;;;;5031167;28;20121;-75
2021/01/29 12:42:24;;;;;;;5.05;0.40;;;5.50;99.90;;;;;;5005283;28;20059;-75
2021/01/29 12:45:01;;;;;;;1.75;0.40;;;5.50;99.90;;;;;;5006477;28;20022;-76
2021/01/29 12:47:38;;;;;;;1.13;0.50;;;5.50;99.90;;;;;;5020730;28;20032;-75
2021/01/29 12:50:35;;;;;;;5.57;0.98;;;5.50;99.90;;;;;;5015503;28;20029;-76
2021/01/29 12:53:33;;;;;;;3.22;0.50;;;5.50;99.90;;;;;;5024000;28;20116;-75
2021/01/29 12:56:12;;;;;;;0.60;0.30;;;5.50;99.90;;;;;;5009151;28;20115;-75
2021/01/29 12:58:51;;;;;;;2.85;0.50;;;5.50;99.90;;;;;;5018507;28;20040;-75
2021/01/29 13:01:40;;;;;;;5.28;0.32;;;5.50;99.90;;;;;;5017058;28;20030;-76
2021/01/29 13:04:41;;;;;;;0.70;0.30;;;5.40;99.90;;;;;;4998647;28;20083;-76
2021/01/29 13:07:18;;;;;;;0.43;0.22;;;5.40;99.90;;;;;;5036037;28;20517;-76
2021/01/29 13:10:13;;;;;;;4.43;0.50;;;5.40;99.90;;;;;;5028854;28;20025;-75
2021/01/29 13:12:51;;;;;;;5.47;0.65;;;5.40;99.90;;;;;;5026070;28;20091;-77
2021/01/29 13:15:39;;;;;;;44.83;1.45;;;5.40;99.90;;;;;;5034971;28;20017;-78
2021/01/29 13:18:30;;;;;;;51.50;1.75;;;5.30;99.90;;;;;;5028795;28;20032;-75
2021/01/29 13:21:07;;;;;;;1.13;0.57;;;5.30;99.90;;;;;;5035330;28;20583;-75
2021/01/29 13:23:32;;;;;;;13.88;0.82;;;5.30;99.90;;;;;;5035140;28;20094;-76
2021/01/29 13:26:09;;;;;;;6.00;0.40;;;5.20;99.90;;;;;;5032571;28;20021;-75
2021/01/29 13:28:38;;;;;;;3.78;0.60;;;5.30;99.90;;;;;;5037204;28;20034;-76
2021/01/29 13:31:20;;;;;;;1.80;0.47;;;5.20;99.90;;;;;;5020442;28;20074;-75
2021/01/29 13:33:57;;;;;;;4.43;0.40;;;5.20;99.90;;;;;;4998329;28;20028;-75
2021/01/29 13:36:31;;;;;;;4.13;0.55;;;5.20;99.90;;;;;;5016750;28;20104;-75
2021/01/29 13:39:20;;;;;;;1.35;0.60;;;5.20;99.90;;;;;;5022314;28;20397;-76
2021/01/29 13:42:10;;;;;;;18.33;0.70;;;5.20;99.90;;;;;;5023704;28;20026;-77
2021/01/29 13:44:39;;;;;;;8.55;0.55;;;5.20;99.90;;;;;;5023504;28;20080;-76
2021/01/29 13:47:08;;;;;;;18.25;0.93;;;5.10;99.90;;;;;;5007994;28;20436;-76
2021/01/29 13:49:40;;;;;;;5.70;0.32;;;5.20;99.90;;;;;;5025647;28;20152;-75
2021/01/29 13:52:34;;;;;;;23.63;0.80;;;5.20;99.90;;;;;;5024242;28;20486;-75
2021/01/29 13:55:21;;;;;;;5.90;0.52;;;5.10;99.90;;;;;;5028649;28;20021;-75
2021/01/29 13:58:18;;;;;;;9.85;0.65;;;5.10;99.90;;;;;;5022884;28;20036;-75
2021/01/29 14:00:49;;;;;;;6.75;0.73;;;5.10;99.90;;;;;;5009013;28;20037;-75
2021/01/29 14:03:33;;;;;;;1.88;0.30;;;5.10;99.90;;;;;;5026123;28;20165;-75
2021/01/29 14:06:01;;;;;;;2.10;0.50;;;5.10;99.90;;;;;;5025707;28;20053;-75
2021/01/29 14:08:28;;;;;;;11.80;0.38;;;5.10;99.90;;;;;;5023312;28;20030;-75
2021/01/29 14:10:56;;;;;;;15.35;0.90;;;5.10;99.90;;;;;;5007895;28;20030;-76
2021/01/29 14:13:39;;;;;;;21.15;1.00;;;5.20;99.90;;;;;;5022481;28;20038;-76
2021/01/29 14:16:24;;;;;;;0.75;0.38;;;5.10;99.90;;;;;;5024900;28;20032;-76
2021/01/29 14:19:01;;;;;;;6.82;0.43;;;5.10;99.90;;;;;;5018370;28;20036;-78
2021/01/29 14:21:48;;;;;;;7.07;0.38;;;5.10;99.90;;;;;;5024084;28;20023;-78
2021/01/29 14:24:46;;;;;;;7.32;0.50;;;5.10;99.90;;;;;;5023549;28;20049;-77